createdAt,value
2018-03-23T00:00:14.769Z,100.0
2018-03-23T00:01:16.461Z,100.0
2018-03-23T00:02:18.256Z,100.0
2018-03-23T00:03:19.936Z,100.0
2018-03-23T00:04:21.657Z,100.0
2018-03-23T00:05:23.358Z,100.0
2018-03-23T00:06:25.088Z,100.0
2018-03-23T00:07:26.795Z,100.0
2018-03-23T00:08:28.543Z,100.0
2018-03-23T00:09:30.328Z,100.0
2018-03-23T00:10:32.131Z,100.0
2018-03-23T00:11:33.806Z,100.0
2018-03-23T00:12:35.467Z,100.0
2018-03-23T00:13:37.174Z,100.0
2018-03-23T00:14:38.787Z,100.0
2018-03-23T00:15:40.527Z,100.0
2018-03-23T00:16:42.222Z,100.0
2018-03-23T00:17:43.946Z,100.0
2018-03-23T00:18:45.739Z,100.0
2018-03-23T00:19:47.400Z,100.0
2018-03-23T00:20:49.062Z,100.0
2018-03-23T00:21:50.818Z,100.0
2018-03-23T00:22:52.533Z,100.0
2018-03-23T00:23:54.234Z,100.0
2018-03-23T00:24:55.851Z,100.0
2018-03-23T00:25:57.663Z,100.0
2018-03-23T00:26:59.384Z,100.0
2018-03-23T00:28:01.197Z,100.0
2018-03-23T00:29:02.922Z,100.0
2018-03-23T00:30:04.627Z,100.0
2018-03-23T00:31:06.345Z,100.0
2018-03-23T00:32:08.121Z,100.0
2018-03-23T00:33:09.854Z,100.0
2018-03-23T00:34:11.739Z,100.0
2018-03-23T00:35:13.445Z,100.0
2018-03-23T00:36:15.202Z,100.0
2018-03-23T00:37:16.929Z,100.0
2018-03-23T00:38:18.772Z,100.0
2018-03-23T00:39:20.337Z,100.0
2018-03-23T00:40:22.082Z,100.0
2018-03-23T00:41:23.655Z,100.0
2018-03-23T00:42:25.226Z,100.0
2018-03-23T00:43:26.967Z,100.0
2018-03-23T00:44:28.689Z,100.0
2018-03-23T00:45:30.481Z,100.0
2018-03-23T00:46:31.966Z,100.0
2018-03-23T00:47:33.676Z,100.0
2018-03-23T00:48:35.384Z,100.0
2018-03-23T00:49:37.094Z,100.0
2018-03-23T00:50:38.677Z,100.0
2018-03-23T00:51:40.264Z,100.0
2018-03-23T00:52:41.982Z,100.0
2018-03-23T00:53:43.773Z,100.0
2018-03-23T00:54:45.302Z,100.0
2018-03-23T00:55:47.026Z,100.0
2018-03-23T00:56:48.729Z,100.0
2018-03-23T00:57:50.220Z,100.0
2018-03-23T00:58:51.926Z,100.0
2018-03-23T00:59:53.619Z,100.0
2018-03-23T01:00:55.277Z,100.0
2018-03-23T01:01:57.417Z,100.0
2018-03-23T01:02:59.166Z,100.0
2018-03-23T01:04:00.890Z,100.0
2018-03-23T01:05:02.794Z,100.0
2018-03-23T01:06:04.603Z,100.0
2018-03-23T01:07:06.405Z,100.0
2018-03-23T01:08:08.217Z,100.0
2018-03-23T01:09:09.991Z,100.0
2018-03-23T01:10:11.550Z,100.0
2018-03-23T01:11:13.402Z,100.0
2018-03-23T01:12:15.047Z,100.0
2018-03-23T01:13:16.598Z,100.0
2018-03-23T01:14:18.361Z,100.0
2018-03-23T01:15:20.029Z,100.0
2018-03-23T01:16:21.761Z,100.0
2018-03-23T01:17:23.496Z,100.0
2018-03-23T01:18:25.198Z,100.0
2018-03-23T01:19:26.756Z,100.0
2018-03-23T01:20:28.508Z,100.0
2018-03-23T01:21:30.210Z,100.0
2018-03-23T01:22:31.910Z,100.0
2018-03-23T01:23:33.408Z,100.0
2018-03-23T01:24:35.201Z,100.0
2018-03-23T01:25:36.819Z,100.0
2018-03-23T01:26:38.605Z,100.0
2018-03-23T01:27:40.098Z,100.0
2018-03-23T01:28:41.646Z,100.0
2018-03-23T01:29:43.425Z,100.0
2018-03-23T01:30:45.166Z,100.0
2018-03-23T01:31:46.748Z,100.0
2018-03-23T01:32:48.551Z,100.0
2018-03-23T01:33:50.397Z,100.0
2018-03-23T01:34:52.344Z,100.0
2018-03-23T01:35:53.812Z,100.0
2018-03-23T01:36:55.611Z,100.0
2018-03-23T01:37:57.366Z,100.0
2018-03-23T01:38:59.101Z,100.0
2018-03-23T01:40:00.835Z,100.0
2018-03-23T01:41:02.298Z,100.0
2018-03-23T01:42:03.984Z,100.0
2018-03-23T01:43:05.708Z,100.0
2018-03-23T01:44:07.239Z,100.0
2018-03-23T01:45:08.979Z,100.0
2018-03-23T01:46:10.733Z,100.0
2018-03-23T01:47:12.499Z,100.0
2018-03-23T01:48:14.156Z,100.0
2018-03-23T01:49:15.863Z,100.0
2018-03-23T01:50:17.563Z,100.0
2018-03-23T01:51:19.290Z,100.0
2018-03-23T01:52:21.008Z,100.0
2018-03-23T01:53:22.938Z,100.0
2018-03-23T01:54:24.399Z,100.0
2018-03-23T01:55:26.211Z,100.0
2018-03-23T01:56:28.079Z,100.0
2018-03-23T01:57:29.520Z,100.0
2018-03-23T01:58:31.300Z,100.0
2018-03-23T01:59:33.028Z,100.0
2018-03-23T02:00:34.750Z,100.0
2018-03-23T02:01:36.587Z,100.0
2018-03-23T02:02:38.309Z,100.0
2018-03-23T02:03:40.121Z,100.0
2018-03-23T02:04:41.807Z,100.0
2018-03-23T02:05:43.652Z,100.0
2018-03-23T02:06:45.369Z,100.0
2018-03-23T02:07:46.880Z,100.0
2018-03-23T02:08:48.674Z,100.0
2018-03-23T02:09:50.176Z,100.0
2018-03-23T02:10:51.747Z,100.0
2018-03-23T02:11:53.499Z,100.0
2018-03-23T02:12:55.269Z,100.0
2018-03-23T02:13:57.115Z,100.0
2018-03-23T02:14:58.760Z,100.0
2018-03-23T02:16:00.516Z,100.0
2018-03-23T02:17:02.339Z,100.0
2018-03-23T02:18:04.106Z,100.0
2018-03-23T02:19:05.643Z,100.0
2018-03-23T02:20:07.165Z,100.0
2018-03-23T02:21:08.886Z,100.0
2018-03-23T02:22:10.601Z,100.0
2018-03-23T02:23:12.325Z,100.0
2018-03-23T02:24:13.861Z,100.0
2018-03-23T02:25:15.560Z,100.0
2018-03-23T02:26:17.274Z,100.0
2018-03-23T02:27:19.097Z,100.0
2018-03-23T02:28:20.746Z,100.0
2018-03-23T02:29:22.201Z,100.0
2018-03-23T02:30:23.965Z,100.0
2018-03-23T02:31:25.641Z,100.0
2018-03-23T02:32:27.271Z,100.0
2018-03-23T02:33:29.020Z,100.0
2018-03-23T02:34:30.865Z,100.0
2018-03-23T02:35:32.475Z,100.0
2018-03-23T02:36:34.260Z,100.0
2018-03-23T02:37:36.015Z,100.0
2018-03-23T02:38:37.526Z,100.0
2018-03-23T02:39:39.154Z,100.0
2018-03-23T02:40:40.873Z,100.0
2018-03-23T02:41:42.647Z,100.0
2018-03-23T02:42:44.370Z,100.0
2018-03-23T02:43:46.098Z,100.0
2018-03-23T02:44:47.789Z,100.0
2018-03-23T02:45:49.500Z,100.0
2018-03-23T02:46:51.258Z,100.0
2018-03-23T02:47:52.780Z,100.0
2018-03-23T02:48:54.583Z,100.0
2018-03-23T02:49:56.274Z,100.0
2018-03-23T02:50:58.080Z,100.0
2018-03-23T02:51:59.561Z,100.0
2018-03-23T02:53:01.591Z,100.0
2018-03-23T02:54:03.309Z,100.0
2018-03-23T02:55:05.118Z,100.0
2018-03-23T02:56:06.893Z,100.0
2018-03-23T02:57:08.590Z,100.0
2018-03-23T02:58:10.305Z,100.0
2018-03-23T02:59:11.961Z,100.0
2018-03-23T03:00:13.388Z,100.0
2018-03-23T03:01:15.229Z,100.0
2018-03-23T03:02:16.732Z,100.0
2018-03-23T03:03:18.376Z,100.0
2018-03-23T03:04:20.099Z,100.0
2018-03-23T03:05:21.703Z,100.0
2018-03-23T03:06:23.184Z,100.0
2018-03-23T03:07:24.985Z,100.0
2018-03-23T03:08:26.751Z,100.0
2018-03-23T03:09:28.435Z,100.0
2018-03-23T03:10:30.170Z,100.0
2018-03-23T03:11:31.855Z,100.0
2018-03-23T03:12:33.496Z,100.0
2018-03-23T03:13:35.193Z,100.0
2018-03-23T03:14:36.845Z,100.0
2018-03-23T03:15:38.626Z,100.0
2018-03-23T03:16:40.441Z,100.0
2018-03-23T03:17:42.091Z,100.0
2018-03-23T03:18:43.598Z,100.0
2018-03-23T03:19:45.106Z,100.0
2018-03-23T03:20:46.806Z,100.0
2018-03-23T03:21:48.477Z,100.0
2018-03-23T03:22:50.208Z,100.0
2018-03-23T03:23:51.908Z,100.0
2018-03-23T03:24:53.483Z,100.0
2018-03-23T03:25:55.271Z,100.0
2018-03-23T03:26:56.916Z,100.0
2018-03-23T03:27:58.667Z,100.0
2018-03-23T03:29:00.236Z,100.0
2018-03-23T03:30:01.912Z,100.0
2018-03-23T03:31:03.615Z,100.0
2018-03-23T03:32:05.160Z,100.0
2018-03-23T03:33:06.769Z,100.0
2018-03-23T03:34:08.615Z,100.0
2018-03-23T03:35:10.292Z,100.0
2018-03-23T03:36:12.011Z,100.0
2018-03-23T03:37:13.809Z,100.0
2018-03-23T03:38:15.488Z,100.0
2018-03-23T03:39:16.999Z,100.0
2018-03-23T03:40:18.768Z,100.0
2018-03-23T03:41:20.579Z,100.0
2018-03-23T03:42:22.252Z,100.0
2018-03-23T03:43:23.916Z,100.0
2018-03-23T03:44:25.490Z,100.0
2018-03-23T03:45:27.193Z,100.0
2018-03-23T03:46:28.943Z,100.0
2018-03-23T03:47:30.618Z,100.0
2018-03-23T03:48:32.351Z,100.0
2018-03-23T03:49:34.052Z,100.0
2018-03-23T03:50:35.782Z,100.0
2018-03-23T03:51:37.506Z,100.0
2018-03-23T03:52:39.060Z,100.0
2018-03-23T03:53:40.836Z,100.0
2018-03-23T03:54:42.507Z,100.0
2018-03-23T03:55:44.182Z,100.0
2018-03-23T03:56:45.769Z,100.0
2018-03-23T03:57:47.478Z,100.0
2018-03-23T03:58:49.173Z,100.0
2018-03-23T03:59:50.941Z,100.0
2018-03-23T04:00:52.693Z,100.0
2018-03-23T04:01:54.722Z,100.0
2018-03-23T04:02:56.824Z,100.0
2018-03-23T04:03:58.282Z,100.0
2018-03-23T04:04:59.818Z,100.0
2018-03-23T04:06:02.070Z,100.0
2018-03-23T04:07:03.721Z,100.0
2018-03-23T04:08:05.454Z,100.0
2018-03-23T04:09:07.207Z,100.0
2018-03-23T04:10:08.891Z,100.0
2018-03-23T04:11:10.976Z,100.0
2018-03-23T04:12:12.478Z,100.0
2018-03-23T04:13:14.363Z,100.0
2018-03-23T04:14:16.106Z,100.0
2018-03-23T04:15:17.781Z,100.0
2018-03-23T04:16:19.461Z,100.0
2018-03-23T04:17:20.960Z,100.0
2018-03-23T04:18:22.412Z,100.0
2018-03-23T04:19:23.956Z,100.0
2018-03-23T04:20:25.959Z,100.0
2018-03-23T04:21:27.909Z,100.0
2018-03-23T04:22:29.611Z,100.0
2018-03-23T04:23:31.272Z,100.0
2018-03-23T04:24:32.831Z,100.0
2018-03-23T04:25:34.641Z,100.0
2018-03-23T04:26:36.415Z,100.0
2018-03-23T04:27:37.976Z,100.0
2018-03-23T04:28:39.465Z,100.0
2018-03-23T04:29:41.536Z,100.0
2018-03-23T04:30:43.115Z,100.0
2018-03-23T04:31:44.774Z,100.0
2018-03-23T04:32:46.566Z,100.0
2018-03-23T04:33:48.118Z,100.0
2018-03-23T04:34:49.868Z,100.0
2018-03-23T04:35:51.965Z,100.0
2018-03-23T04:36:53.972Z,100.0
2018-03-23T04:37:55.762Z,100.0
2018-03-23T04:38:57.512Z,100.0
2018-03-23T04:39:59.184Z,100.0
2018-03-23T04:41:00.862Z,100.0
2018-03-23T04:42:02.563Z,100.0
2018-03-23T04:43:04.265Z,100.0
2018-03-23T04:44:05.886Z,100.0
2018-03-23T04:45:07.583Z,100.0
2018-03-23T04:46:09.342Z,100.0
2018-03-23T04:47:11.019Z,100.0
2018-03-23T04:48:12.716Z,100.0
2018-03-23T04:49:14.409Z,100.0
2018-03-23T04:50:16.079Z,100.0
2018-03-23T04:51:17.866Z,100.0
2018-03-23T04:52:19.562Z,100.0
2018-03-23T04:53:21.274Z,100.0
2018-03-23T04:54:22.984Z,100.0
2018-03-23T04:55:24.738Z,100.0
2018-03-23T04:56:26.484Z,100.0
2018-03-23T04:57:28.221Z,100.0
2018-03-23T04:58:29.941Z,100.0
2018-03-23T04:59:31.673Z,100.0
2018-03-23T05:00:33.439Z,100.0
2018-03-23T05:01:35.186Z,100.0
2018-03-23T05:02:36.982Z,100.0
2018-03-23T05:03:38.668Z,100.0
2018-03-23T05:04:40.456Z,100.0
2018-03-23T05:05:42.956Z,100.0
2018-03-23T05:06:44.730Z,100.0
2018-03-23T05:07:46.481Z,100.0
2018-03-23T05:08:48.228Z,100.0
2018-03-23T05:09:49.853Z,100.0
2018-03-23T05:10:51.526Z,100.0
2018-03-23T05:11:53.206Z,100.0
2018-03-23T05:12:54.943Z,100.0
2018-03-23T05:13:56.744Z,100.0
2018-03-23T05:14:58.449Z,100.0
2018-03-23T05:16:00.182Z,100.0
2018-03-23T05:17:01.912Z,100.0
2018-03-23T05:18:03.598Z,100.0
2018-03-23T05:19:05.209Z,100.0
2018-03-23T05:20:06.946Z,100.0
2018-03-23T05:21:08.625Z,100.0
2018-03-23T05:22:10.336Z,100.0
2018-03-23T05:23:12.005Z,100.0
2018-03-23T05:24:13.680Z,100.0
2018-03-23T05:25:15.463Z,100.0
2018-03-23T05:26:17.048Z,100.0
2018-03-23T05:27:18.761Z,100.0
2018-03-23T05:28:20.647Z,100.0
2018-03-23T05:29:22.354Z,100.0
2018-03-23T05:30:24.041Z,100.0
2018-03-23T05:31:25.776Z,100.0
2018-03-23T05:32:27.442Z,100.0
2018-03-23T05:33:29.190Z,100.0
2018-03-23T05:34:30.935Z,100.0
2018-03-23T05:35:32.632Z,100.0
2018-03-23T05:36:34.408Z,100.0
2018-03-23T05:37:36.104Z,100.0
2018-03-23T05:38:37.825Z,100.0
2018-03-23T05:39:39.577Z,100.0
2018-03-23T05:40:41.373Z,100.0
2018-03-23T05:41:43.105Z,100.0
2018-03-23T05:42:44.870Z,100.0
2018-03-23T05:43:46.690Z,100.0
2018-03-23T05:44:48.469Z,100.0
2018-03-23T05:45:50.205Z,100.0
2018-03-23T05:46:51.954Z,100.0
2018-03-23T05:47:53.660Z,100.0
2018-03-23T05:48:55.402Z,100.0
2018-03-23T05:49:57.221Z,100.0
2018-03-23T05:50:58.973Z,100.0
2018-03-23T05:52:00.647Z,100.0
2018-03-23T05:53:02.427Z,100.0
2018-03-23T05:54:04.155Z,100.0
2018-03-23T05:55:05.873Z,100.0
2018-03-23T05:56:07.592Z,100.0
2018-03-23T05:57:09.353Z,100.0
2018-03-23T05:58:11.050Z,100.0
2018-03-23T05:59:12.885Z,100.0
2018-03-23T06:00:14.575Z,100.0
2018-03-23T06:01:16.422Z,100.0
2018-03-23T06:02:18.120Z,100.0
2018-03-23T06:03:19.933Z,100.0
2018-03-23T06:04:21.656Z,100.0
2018-03-23T06:05:23.426Z,100.0
2018-03-23T06:06:25.193Z,100.0
2018-03-23T06:07:26.900Z,100.0
2018-03-23T06:08:28.618Z,100.0
2018-03-23T06:09:30.336Z,100.0
2018-03-23T06:10:32.087Z,100.0
2018-03-23T06:11:33.730Z,100.0
2018-03-23T06:12:35.517Z,100.0
2018-03-23T06:13:37.216Z,100.0
2018-03-23T06:14:38.955Z,100.0
2018-03-23T06:15:40.603Z,100.0
2018-03-23T06:16:42.421Z,100.0
2018-03-23T06:17:44.128Z,100.0
2018-03-23T06:18:45.926Z,100.0
2018-03-23T06:19:47.558Z,100.0
2018-03-23T06:20:49.233Z,100.0
2018-03-23T06:21:50.885Z,100.0
2018-03-23T06:22:52.593Z,100.0
2018-03-23T06:23:54.297Z,100.0
2018-03-23T06:24:55.862Z,100.0
2018-03-23T06:25:57.582Z,100.0
2018-03-23T06:26:59.215Z,100.0
2018-03-23T06:28:01.053Z,100.0
2018-03-23T06:29:02.725Z,100.0
2018-03-23T06:30:04.966Z,100.0
2018-03-23T06:31:06.718Z,100.0
2018-03-23T06:32:08.483Z,100.0
2018-03-23T06:33:10.236Z,100.0
2018-03-23T06:34:11.977Z,100.0
2018-03-23T06:35:13.717Z,100.0
2018-03-23T06:36:15.312Z,100.0
2018-03-23T06:37:16.980Z,100.0
2018-03-23T06:38:18.757Z,100.0
2018-03-23T06:39:20.484Z,100.0
2018-03-23T06:40:22.176Z,100.0
2018-03-23T06:41:23.750Z,100.0
2018-03-23T06:42:25.342Z,100.0
2018-03-23T06:43:27.098Z,100.0
2018-03-23T06:44:28.884Z,100.0
2018-03-23T06:45:30.619Z,100.0
2018-03-23T06:46:32.300Z,100.0
2018-03-23T06:47:34.029Z,100.0
2018-03-23T06:48:35.813Z,100.0
2018-03-23T06:49:37.625Z,100.0
2018-03-23T06:50:39.303Z,100.0
2018-03-23T06:51:41.074Z,100.0
2018-03-23T06:52:42.828Z,100.0
2018-03-23T06:53:44.611Z,100.0
2018-03-23T06:54:46.413Z,100.0
2018-03-23T06:55:48.158Z,100.0
2018-03-23T06:56:49.949Z,100.0
2018-03-23T06:57:51.628Z,100.0
2018-03-23T06:58:53.395Z,100.0
2018-03-23T06:59:55.170Z,100.0
2018-03-23T07:00:56.960Z,100.0
2018-03-23T07:01:58.722Z,100.0
2018-03-23T07:03:00.466Z,100.0
2018-03-23T07:04:02.209Z,100.0
2018-03-23T07:05:03.890Z,100.0
2018-03-23T07:06:05.523Z,100.0
2018-03-23T07:07:07.232Z,100.0
2018-03-23T07:08:08.950Z,100.0
2018-03-23T07:09:10.653Z,100.0
2018-03-23T07:10:12.385Z,100.0
2018-03-23T07:11:14.131Z,100.0
2018-03-23T07:12:15.842Z,100.0
2018-03-23T07:13:17.644Z,100.0
2018-03-23T07:14:19.333Z,100.0
2018-03-23T07:15:20.933Z,100.0
2018-03-23T07:16:22.682Z,100.0
2018-03-23T07:17:24.418Z,100.0
2018-03-23T07:18:26.124Z,100.0
2018-03-23T07:19:27.713Z,100.0
2018-03-23T07:20:29.261Z,100.0
2018-03-23T07:21:30.970Z,100.0
2018-03-23T07:22:32.664Z,100.0
2018-03-23T07:23:34.981Z,100.0
2018-03-23T07:24:36.722Z,100.0
2018-03-23T07:25:38.372Z,100.0
2018-03-23T07:26:40.024Z,100.0
2018-03-23T07:27:41.868Z,100.0
2018-03-23T07:28:43.487Z,100.0
2018-03-23T07:29:45.174Z,100.0
2018-03-23T07:30:46.762Z,100.0
2018-03-23T07:31:48.483Z,100.0
2018-03-23T07:32:50.270Z,100.0
2018-03-23T07:33:51.959Z,100.0
2018-03-23T07:34:53.708Z,100.0
2018-03-23T07:35:55.464Z,100.0
2018-03-23T07:36:57.159Z,100.0
2018-03-23T07:37:58.794Z,100.0
2018-03-23T07:39:00.350Z,100.0
2018-03-23T07:40:02.076Z,100.0
2018-03-23T07:41:03.770Z,100.0
2018-03-23T07:42:05.492Z,100.0
2018-03-23T07:43:07.085Z,100.0
2018-03-23T07:44:08.791Z,100.0
2018-03-23T07:45:10.439Z,100.0
2018-03-23T07:46:12.019Z,100.0
2018-03-23T07:47:13.618Z,100.0
2018-03-23T07:48:15.292Z,100.0
2018-03-23T07:49:17.109Z,100.0
2018-03-23T07:50:18.954Z,100.0
2018-03-23T07:51:20.467Z,100.0
2018-03-23T07:52:21.995Z,100.0
2018-03-23T07:53:23.649Z,100.0
2018-03-23T07:54:25.375Z,100.0
2018-03-23T07:55:26.906Z,100.0
2018-03-23T07:56:28.577Z,100.0
2018-03-23T07:57:30.079Z,100.0
2018-03-23T07:58:31.919Z,100.0
2018-03-23T07:59:33.656Z,100.0
2018-03-23T08:00:35.406Z,100.0
2018-03-23T08:01:37.198Z,100.0
2018-03-23T08:02:39.009Z,100.0
2018-03-23T08:03:40.610Z,100.0
2018-03-23T08:04:42.353Z,100.0
2018-03-23T08:05:44.097Z,100.0
2018-03-23T08:06:45.807Z,100.0
2018-03-23T08:07:47.417Z,100.0
2018-03-23T08:08:49.138Z,100.0
2018-03-23T08:09:50.877Z,100.0
2018-03-23T08:10:52.630Z,100.0
2018-03-23T08:11:54.424Z,100.0
2018-03-23T08:12:56.226Z,100.0
2018-03-23T08:13:57.934Z,100.0
2018-03-23T08:14:59.723Z,100.0
2018-03-23T08:16:01.509Z,100.0
2018-03-23T08:17:03.271Z,100.0
2018-03-23T08:18:04.980Z,100.0
2018-03-23T08:19:06.811Z,100.0
2018-03-23T08:20:08.581Z,100.0
2018-03-23T08:21:10.050Z,100.0
2018-03-23T08:22:11.633Z,100.0
2018-03-23T08:23:13.381Z,100.0
2018-03-23T08:24:15.177Z,100.0
2018-03-23T08:25:16.898Z,100.0
2018-03-23T08:26:18.581Z,100.0
2018-03-23T08:27:20.304Z,100.0
2018-03-23T08:28:22.032Z,100.0
2018-03-23T08:29:23.499Z,100.0
2018-03-23T08:30:25.241Z,100.0
2018-03-23T08:31:27.060Z,100.0
2018-03-23T08:32:28.762Z,100.0
2018-03-23T08:33:30.386Z,100.0
2018-03-23T08:34:32.097Z,100.0
2018-03-23T08:35:33.750Z,100.0
2018-03-23T08:36:35.367Z,100.0
2018-03-23T08:37:36.837Z,100.0
2018-03-23T08:38:38.567Z,100.0
2018-03-23T08:39:40.022Z,100.0
2018-03-23T08:40:41.536Z,100.0
2018-03-23T08:41:43.233Z,100.0
2018-03-23T08:42:44.942Z,100.0
2018-03-23T08:43:46.423Z,100.0
2018-03-23T08:44:48.122Z,100.0
2018-03-23T08:45:49.890Z,100.0
2018-03-23T08:46:51.340Z,100.0
2018-03-23T08:47:53.113Z,100.0
2018-03-23T08:48:54.823Z,100.0
2018-03-23T08:49:56.622Z,100.0
2018-03-23T08:50:58.087Z,100.0
2018-03-23T08:51:59.838Z,100.0
2018-03-23T08:53:01.562Z,100.0
2018-03-23T08:54:03.094Z,100.0
2018-03-23T08:55:04.573Z,100.0
2018-03-23T08:56:06.253Z,100.0
2018-03-23T08:57:08.048Z,100.0
2018-03-23T08:58:09.777Z,100.0
2018-03-23T08:59:11.208Z,100.0
2018-03-23T09:00:12.923Z,100.0
2018-03-23T09:01:14.692Z,100.0
2018-03-23T09:02:16.199Z,100.0
2018-03-23T09:03:17.865Z,100.0
2018-03-23T09:04:19.551Z,100.0
2018-03-23T09:05:21.066Z,100.0
2018-03-23T09:06:22.881Z,100.0
2018-03-23T09:07:24.555Z,100.0
2018-03-23T09:08:26.294Z,100.0
2018-03-23T09:09:27.736Z,99.4
2018-03-23T09:10:29.246Z,99.9
2018-03-23T09:11:30.715Z,99.7
2018-03-23T09:12:32.147Z,100.0
2018-03-23T09:13:33.839Z,100.0
2018-03-23T09:14:35.558Z,100.0
2018-03-23T09:15:37.038Z,100.0
2018-03-23T09:16:38.802Z,99.5
2018-03-23T09:17:40.483Z,98.5
2018-03-23T09:18:41.949Z,98.1
2018-03-23T09:19:43.405Z,97.7
2018-03-23T09:20:44.943Z,97.7
2018-03-23T09:21:46.469Z,97.7
2018-03-23T09:22:47.902Z,98.2
2018-03-23T09:23:49.369Z,97.8
2018-03-23T09:24:51.098Z,96.7
2018-03-23T09:25:52.828Z,96.3
2018-03-23T09:26:54.481Z,95.8
2018-03-23T09:27:55.984Z,95.6
2018-03-23T09:28:57.660Z,96.5
2018-03-23T09:29:59.230Z,95.9
2018-03-23T09:31:00.779Z,94.6
2018-03-23T09:32:02.269Z,94.3
2018-03-23T09:33:04.606Z,93.9
2018-03-23T09:34:06.347Z,94.8
2018-03-23T09:35:08.037Z,94.3
2018-03-23T09:36:09.791Z,92.8
2018-03-23T09:37:11.493Z,92.8
2018-03-23T09:38:13.210Z,94.0
2018-03-23T09:39:14.974Z,93.7
2018-03-23T09:40:16.429Z,95.1
2018-03-23T09:41:18.132Z,94.6
2018-03-23T09:42:19.819Z,94.0
2018-03-23T09:43:21.404Z,92.4
2018-03-23T09:44:23.101Z,92.6
2018-03-23T09:45:24.923Z,93.9
2018-03-23T09:46:26.744Z,93.3
2018-03-23T09:47:28.418Z,93.5
2018-03-23T09:48:30.098Z,93.0
2018-03-23T09:49:31.836Z,92.0
2018-03-23T09:50:33.292Z,92.5
2018-03-23T09:51:35.008Z,94.0
2018-03-23T09:52:36.533Z,94.8
2018-03-23T09:53:38.052Z,93.8
2018-03-23T09:54:39.774Z,93.8
2018-03-23T09:55:41.332Z,94.7
2018-03-23T09:56:42.966Z,94.8
2018-03-23T09:57:44.724Z,95.5
2018-03-23T09:58:46.517Z,95.6
2018-03-23T09:59:47.986Z,95.5
2018-03-23T10:00:49.598Z,94.6
2018-03-23T10:01:51.356Z,94.9
2018-03-23T10:02:53.124Z,94.9
2018-03-23T10:03:54.860Z,94.9
2018-03-23T10:04:56.584Z,94.8
2018-03-23T10:05:58.288Z,94.5
2018-03-23T10:06:59.881Z,93.9
2018-03-23T10:08:01.564Z,92.5
2018-03-23T10:09:03.208Z,92.5
2018-03-23T10:10:04.916Z,93.0
2018-03-23T10:11:06.702Z,92.2
2018-03-23T10:12:08.362Z,91.9
2018-03-23T10:13:09.913Z,91.9
2018-03-23T10:14:11.824Z,92.0
2018-03-23T10:15:13.588Z,92.0
2018-03-23T10:16:15.104Z,92.2
2018-03-23T10:17:16.769Z,91.8
2018-03-23T10:18:18.527Z,90.4
2018-03-23T10:19:20.309Z,90.2
2018-03-23T10:20:22.053Z,89.0
2018-03-23T10:21:23.785Z,88.5
2018-03-23T10:22:25.533Z,88.7
2018-03-23T10:23:27.298Z,88.5
2018-03-23T10:24:29.131Z,87.2
2018-03-23T10:25:30.842Z,87.0
2018-03-23T10:26:32.389Z,86.6
2018-03-23T10:27:33.876Z,87.0
2018-03-23T10:28:35.353Z,86.9
2018-03-23T10:29:36.874Z,87.1
2018-03-23T10:30:38.367Z,87.9
2018-03-23T10:31:40.014Z,87.6
2018-03-23T10:32:41.524Z,87.4
2018-03-23T10:33:43.059Z,87.1
2018-03-23T10:34:44.475Z,87.8
2018-03-23T10:35:45.920Z,88.2
2018-03-23T10:36:47.354Z,88.3
2018-03-23T10:37:48.771Z,87.8
2018-03-23T10:38:50.269Z,88.1
2018-03-23T10:39:51.800Z,87.4
2018-03-23T10:40:53.260Z,87.1
2018-03-23T10:41:54.761Z,87.1
2018-03-23T10:42:56.238Z,85.7
2018-03-23T10:43:57.798Z,86.1
2018-03-23T10:44:59.266Z,87.8
2018-03-23T10:46:00.730Z,88.6
2018-03-23T10:47:02.452Z,88.4
2018-03-23T10:48:03.980Z,87.6
2018-03-23T10:49:05.734Z,87.2
2018-03-23T10:50:07.404Z,86.5
2018-03-23T10:51:08.843Z,86.6
2018-03-23T10:52:10.324Z,87.5
2018-03-23T10:53:11.837Z,87.5
2018-03-23T10:54:13.631Z,88.6
2018-03-23T10:55:15.361Z,88.4
2018-03-23T10:56:16.915Z,86.8
2018-03-23T10:57:18.673Z,86.6
2018-03-23T10:58:20.316Z,86.8
2018-03-23T10:59:22.061Z,86.4
2018-03-23T11:00:23.464Z,87.1
2018-03-23T11:01:25.061Z,86.8
2018-03-23T11:02:26.675Z,86.9
2018-03-23T11:03:28.129Z,86.9
2018-03-23T11:04:29.744Z,87.5
2018-03-23T11:05:31.250Z,87.4
2018-03-23T11:06:32.892Z,86.8
2018-03-23T11:07:34.673Z,86.9
2018-03-23T11:08:36.242Z,86.9
2018-03-23T11:09:37.692Z,86.2
2018-03-23T11:10:39.460Z,87.3
2018-03-23T11:11:41.164Z,87.2
2018-03-23T11:12:42.962Z,86.3
2018-03-23T11:13:44.622Z,86.4
2018-03-23T11:14:46.085Z,86.2
2018-03-23T11:15:47.614Z,85.4
2018-03-23T11:16:49.152Z,84.1
2018-03-23T11:17:50.949Z,82.2
2018-03-23T11:18:52.722Z,82.5
2018-03-23T11:19:54.503Z,82.5
2018-03-23T11:20:56.249Z,83.1
2018-03-23T11:21:58.018Z,81.9
2018-03-23T11:22:59.801Z,79.6
2018-03-23T11:24:01.510Z,79.4
2018-03-23T11:25:03.209Z,80.1
2018-03-23T11:26:05.003Z,78.9
2018-03-23T11:27:06.817Z,78.5
2018-03-23T11:28:08.569Z,78.9
2018-03-23T11:29:10.406Z,78.8
2018-03-23T11:30:12.172Z,78.6
2018-03-23T11:31:13.743Z,77.6
2018-03-23T11:32:15.464Z,74.3
2018-03-23T11:33:17.234Z,73.7
2018-03-23T11:34:19.025Z,72.9
2018-03-23T11:35:20.694Z,73.7
2018-03-23T11:36:22.487Z,73.8
2018-03-23T11:37:23.994Z,74.5
2018-03-23T11:38:25.694Z,74.1
2018-03-23T11:39:27.281Z,74.3
2018-03-23T11:40:29.047Z,75.3
2018-03-23T11:41:30.793Z,76.6
2018-03-23T11:42:32.428Z,77.1
2018-03-23T11:43:33.919Z,78.1
2018-03-23T11:44:35.615Z,77.6
2018-03-23T11:45:37.361Z,76.8
2018-03-23T11:46:39.118Z,77.5
2018-03-23T11:47:40.871Z,78.8
2018-03-23T11:48:42.438Z,78.6
2018-03-23T11:49:44.140Z,78.9
2018-03-23T11:50:45.854Z,79.2
2018-03-23T11:51:47.561Z,76.9
2018-03-23T11:52:49.203Z,77.1
2018-03-23T11:53:50.831Z,78.9
2018-03-23T11:54:52.404Z,78.2
2018-03-23T11:55:54.241Z,78.7
2018-03-23T11:56:56.025Z,77.6
2018-03-23T11:57:57.739Z,77.2
2018-03-23T11:58:59.440Z,76.4
2018-03-23T12:00:00.931Z,77.5
2018-03-23T12:01:02.537Z,77.3
2018-03-23T12:02:04.204Z,77.1
2018-03-23T12:03:05.975Z,77.9
2018-03-23T12:04:07.697Z,77.8
2018-03-23T12:05:09.333Z,76.9
2018-03-23T12:06:10.827Z,76.5
2018-03-23T12:07:12.499Z,76.2
2018-03-23T12:08:14.311Z,75.4
2018-03-23T12:09:15.889Z,76.1
2018-03-23T12:10:17.470Z,76.4
2018-03-23T12:11:19.087Z,76.5
2018-03-23T12:12:20.544Z,76.2
2018-03-23T12:13:22.131Z,76.5
2018-03-23T12:14:23.760Z,77.0
2018-03-23T12:15:25.425Z,77.1
2018-03-23T12:16:27.264Z,75.1
2018-03-23T12:17:28.777Z,76.3
2018-03-23T12:18:30.287Z,77.5
2018-03-23T12:19:32.057Z,76.7
2018-03-23T12:20:33.743Z,76.7
2018-03-23T12:21:35.325Z,76.3
2018-03-23T12:22:36.956Z,77.1
2018-03-23T12:23:38.419Z,77.7
2018-03-23T12:24:39.972Z,79.4
2018-03-23T12:25:41.749Z,80.3
2018-03-23T12:26:43.403Z,79.1
2018-03-23T12:27:44.886Z,76.8
2018-03-23T12:28:46.393Z,77.5
2018-03-23T12:29:48.128Z,76.4
2018-03-23T12:30:49.620Z,77.1
2018-03-23T12:31:51.340Z,78.5
2018-03-23T12:32:52.802Z,79.4
2018-03-23T12:33:54.303Z,78.3
2018-03-23T12:34:55.927Z,77.9
2018-03-23T12:35:57.322Z,76.3
2018-03-23T12:36:59.074Z,77.8
2018-03-23T12:38:00.634Z,78.4
2018-03-23T12:39:02.361Z,77.8
2018-03-23T12:40:04.261Z,77.8
2018-03-23T12:41:05.792Z,77.8
2018-03-23T12:42:07.464Z,78.2
2018-03-23T12:43:09.136Z,78.4
2018-03-23T12:44:10.710Z,78.6
2018-03-23T12:45:12.490Z,79.2
2018-03-23T12:46:14.131Z,79.2
2018-03-23T12:47:15.633Z,78.9
2018-03-23T12:48:17.164Z,79.3
2018-03-23T12:49:18.873Z,79.9
2018-03-23T12:50:20.489Z,80.1
2018-03-23T12:51:22.197Z,80.2
2018-03-23T12:52:23.669Z,79.4
2018-03-23T12:53:25.308Z,78.1
2018-03-23T12:54:27.135Z,78.3
2018-03-23T12:55:28.863Z,79.4
2018-03-23T12:56:30.465Z,78.8
2018-03-23T12:57:31.913Z,79.2
2018-03-23T12:58:33.556Z,78.8
2018-03-23T12:59:35.330Z,78.6
2018-03-23T13:00:36.994Z,78.8
2018-03-23T13:01:38.669Z,78.8
2018-03-23T13:02:40.418Z,79.5
2018-03-23T13:03:42.017Z,80.6
2018-03-23T13:04:43.677Z,80.5
2018-03-23T13:05:45.435Z,80.1
2018-03-23T13:06:47.181Z,80.8
2018-03-23T13:07:48.928Z,80.4
2018-03-23T13:08:50.438Z,78.9
2018-03-23T13:09:52.097Z,79.2
2018-03-23T13:10:54.111Z,79.0
2018-03-23T13:11:55.856Z,79.0
2018-03-23T13:12:57.874Z,78.9
2018-03-23T13:13:59.603Z,79.0
2018-03-23T13:15:01.326Z,79.0
2018-03-23T13:16:02.952Z,79.6
2018-03-23T13:17:04.690Z,79.9
2018-03-23T13:18:06.296Z,80.0
2018-03-23T13:19:07.994Z,79.4
2018-03-23T13:20:09.798Z,78.8
2018-03-23T13:21:11.544Z,80.5
2018-03-23T13:22:13.305Z,80.2